This is the latest recevied weather packets stored in our database for station/object N3MFL. If no packets are shown the sender has not sent any weather packets the latest 10 day(s).
| Time | Temp. | Humidity | Pressure | Rain* | Wind** | Luminosity | Snow |
|---|---|---|---|---|---|---|---|
| 1777645300 | 13.33° C | 54% | 1011.4 hPa | 0 mm | - | 655 W/m² | - |
| 1777644996 | 12.78° C | 51% | 1011.4 hPa | 0 mm | - | 489 W/m² | - |
| 1777644694 | 12.78° C | 52% | 1011.3 hPa | 0 mm | - | 316 W/m² | - |
| 1777644390 | 12.78° C | 54% | 1011.3 hPa | 0 mm | - | 428 W/m² | - |
| 1777644087 | 12.22° C | 55% | 1011.5 hPa | 0 mm | - | 352 W/m² | - |
| 1777643784 | 11.67° C | 53% | 1011.5 hPa | 0 mm | - | 290 W/m² | - |
| 1777643481 | 11.67° C | 53% | 1011.4 hPa | 0 mm | - | 299 W/m² | - |
| 1777642874 | 12.22° C | 54% | 1011.3 hPa | 0 mm | - | 335 W/m² | - |
| 1777642571 | 12.22° C | 57% | 1011.4 hPa | 0 mm | - | 324 W/m² | - |
| 1777642268 | 11.67° C | 59% | 1011.2 hPa | 0 mm | - | 263 W/m² | - |
| 1777641965 | 12.22° C | 58% | 1011.1 hPa | 0 mm | - | 316 W/m² | - |
| 1777641660 | 11.67° C | 59% | 1011.2 hPa | 0 mm | - | 425 W/m² | - |
| 1777641051 | 11.11° C | 59% | 1011.1 hPa | 0 mm | - | 296 W/m² | - |
| 1777639833 | 11.11° C | 65% | 1011.3 hPa | 0 mm | - | 275 W/m² | - |
| 1777638011 | 10° C | 67% | 1011.3 hPa | 0 mm | - | 173 W/m² | - |
| 1777637405 | 10.56° C | 68% | 1011.4 hPa | 0 mm | - | 199 W/m² | - |
| 1777637102 | 10.56° C | 68% | 1011.2 hPa | 0 mm | - | 318 W/m² | - |
| 1777636797 | 10° C | 70% | 1011 hPa | 0 mm | - | 157 W/m² | - |
| 1777636190 | 9.44° C | 73% | 1011 hPa | 0 mm | - | 105 W/m² | - |
| 1777635885 | 9.44° C | 73% | 1011 hPa | 0 mm | - | 108 W/m² | - |
| 1777635581 | 9.44° C | 73% | 1010.9 hPa | 0 mm | - | 114 W/m² | - |
| 1777635278 | 9.44° C | 74% | 1010.8 hPa | 0 mm | - | 103 W/m² | - |
| 1777634974 | 9.44° C | 75% | 1010.9 hPa | 0 mm | - | 62 W/m² | - |
| 1777634671 | 9.44° C | 75% | 1011 hPa | 0 mm | - | 56 W/m² | - |
| 1777634369 | 9.44° C | 73% | 1010.9 hPa | 0 mm | - | 47 W/m² | - |
* Rain latest hour (hover to see other rain measurements)
** Current wind speed in m/s (hover to see current wind gust speed)